Terminal Aerodrome Forecast
Issued by NWS Pittsburgh, PA

Current Version | Previous Version | Graphics & Text | Print | Product List | Glossary On
Versions: 1 2 3 4 5 6 7 8 9 10 11 12 13 14 15 16 17 18 19 20 21 22 23 24 25 26 27
518
FTUS41 KPBZ 152057 AAA
TAFPIT
TAF AMD
KPIT 152057Z 1521/1624 25008G16KT P6SM BKN050
     FM152200 24008G16KT P6SM VCSH BKN045
     FM160000 25011G22KT P6SM VCSH BKN025
     FM160900 25009KT P6SM VCSH BKN025
     FM161500 24009KT P6SM VCSH BKN060=

USA.gov is the U.S. government's official web portal to all federal, state and local government web resources and services.